Time,TemperatureF,DewpointF,PressureIn,WindDirection,WindDirectionDegrees,WindSpeedMPH,WindSpeedGustMPH,Humidity,HourlyPrecipIn,Conditions,Clouds,dailyrainin,SoftwareType,DateUTC
2013-06-27 00:05:00,77.4,72.5,29.77,West,271,0.0,0.0,85,0.00,,,0.00,Wunderground v.1.15,2013-06-27 05:05:00,
2013-06-27 00:14:00,77.0,72.1,29.77,West,271,0.0,0.0,85,0.00,,,0.00,Wunderground v.1.15,2013-06-27 05:14:00,
2013-06-27 00:19:00,76.7,72.2,29.77,West,271,0.0,0.0,86,0.00,,,0.00,Wunderground v.1.15,2013-06-27 05:19:00,
2013-06-27 00:29:00,76.7,72.5,29.77,West,271,0.0,0.0,87,0.00,,,0.00,Wunderground v.1.15,2013-06-27 05:29:00,
2013-06-27 00:39:00,76.3,72.1,29.77,West,271,0.0,0.0,87,0.00,,,0.00,Wunderground v.1.15,2013-06-27 05:39:00,
2013-06-27 00:49:00,76.0,72.2,29.77,West,271,0.0,0.0,88,0.00,,,0.00,Wunderground v.1.15,2013-06-27 05:49:00,
2013-06-27 00:59:00,75.4,71.3,29.77,West,271,0.0,0.0,87,0.00,,,0.00,Wunderground v.1.15,2013-06-27 05:59:00,
2013-06-27 01:04:00,75.3,71.5,29.77,West,271,0.0,0.0,88,0.00,,,0.00,Wunderground v.1.15,2013-06-27 06:04:00,
2013-06-27 01:09:00,75.3,71.5,29.77,West,271,0.0,0.0,88,0.00,,,0.00,Wunderground v.1.15,2013-06-27 06:09:00,
2013-06-27 01:19:00,75.1,71.6,29.77,West,271,0.0,0.0,89,0.00,,,0.00,Wunderground v.1.15,2013-06-27 06:19:00,
2013-06-27 01:29:00,74.7,71.2,29.77,West,271,0.0,0.0,89,0.00,,,0.00,Wunderground v.1.15,2013-06-27 06:29:00,
2013-06-27 01:39:00,74.4,71.3,29.77,West,271,0.0,0.0,90,0.00,,,0.00,Wunderground v.1.15,2013-06-27 06:39:00,
2013-06-27 01:49:00,74.2,71.1,29.77,West,271,0.0,0.0,90,0.00,,,0.00,Wunderground v.1.15,2013-06-27 06:49:00,
2013-06-27 01:59:00,74.4,71.3,29.77,West,271,0.0,0.0,90,0.00,,,0.00,Wunderground v.1.15,2013-06-27 06:59:00,
2013-06-27 02:04:00,74.4,71.3,29.77,West,271,0.0,0.0,90,0.00,,,0.00,Wunderground v.1.15,2013-06-27 07:04:00,
2013-06-27 02:09:00,74.0,70.9,29.77,West,271,0.0,0.0,90,0.00,,,0.00,Wunderground v.1.15,2013-06-27 07:09:00,
2013-06-27 02:19:00,73.7,70.6,29.78,West,271,0.0,0.0,90,0.00,,,0.00,Wunderground v.1.15,2013-06-27 07:19:00,
2013-06-27 02:29:00,73.7,70.9,29.78,West,271,0.0,0.0,91,0.00,,,0.00,Wunderground v.1.15,2013-06-27 07:29:00,
2013-06-27 02:39:00,73.9,70.8,29.78,West,271,0.0,0.0,90,0.00,,,0.00,Wunderground v.1.15,2013-06-27 07:39:00,
2013-06-27 02:49:00,73.3,70.5,29.79,West,271,0.0,0.0,91,0.00,,,0.00,Wunderground v.1.15,2013-06-27 07:49:00,
2013-06-27 02:59:00,73.2,70.4,29.79,West,271,0.0,0.0,91,0.00,,,0.00,Wunderground v.1.15,2013-06-27 07:59:00,
2013-06-27 03:04:00,73.2,70.4,29.79,West,271,0.0,0.0,91,0.00,,,0.00,Wunderground v.1.15,2013-06-27 08:04:00,
2013-06-27 03:14:00,72.8,70.0,29.79,West,271,0.0,0.0,91,0.00,,,0.00,Wunderground v.1.15,2013-06-27 08:14:00,
2013-06-27 03:19:00,72.8,70.0,29.79,West,271,0.0,0.0,91,0.00,,,0.00,Wunderground v.1.15,2013-06-27 08:19:00,
2013-06-27 03:29:00,72.7,69.9,29.79,West,271,0.0,0.0,91,0.00,,,0.00,Wunderground v.1.15,2013-06-27 08:29:00,
2013-06-27 03:39:00,72.3,69.5,29.80,West,271,0.0,0.0,91,0.00,,,0.00,Wunderground v.1.15,2013-06-27 08:39:00,
2013-06-27 03:49:00,72.1,69.3,29.80,West,271,0.0,0.0,91,0.00,,,0.00,Wunderground v.1.15,2013-06-27 08:49:00,
2013-06-27 03:59:00,72.3,69.8,29.80,West,271,0.0,0.0,92,0.00,,,0.00,Wunderground v.1.15,2013-06-27 08:59:00,
2013-06-27 04:04:00,72.1,69.6,29.81,West,271,0.0,0.0,92,0.00,,,0.00,Wunderground v.1.15,2013-06-27 09:04:00,
2013-06-27 04:09:00,72.1,69.6,29.81,West,271,0.0,0.0,92,0.00,,,0.00,Wunderground v.1.15,2013-06-27 09:09:00,
2013-06-27 04:19:00,72.1,69.6,29.81,West,271,0.0,0.0,92,0.00,,,0.00,Wunderground v.1.15,2013-06-27 09:19:00,
2013-06-27 04:29:00,72.0,69.5,29.81,West,271,0.0,0.0,92,0.00,,,0.00,Wunderground v.1.15,2013-06-27 09:29:00,
2013-06-27 04:34:00,72.0,69.5,29.81,West,271,0.0,0.0,92,0.00,,,0.00,Wunderground v.1.15,2013-06-27 09:34:00,
2013-06-27 04:39:00,71.8,69.3,29.81,West,271,0.0,0.0,92,0.00,,,0.00,Wunderground v.1.15,2013-06-27 09:39:00,
2013-06-27 04:49:00,71.8,69.3,29.81,West,271,0.0,0.0,92,0.00,,,0.00,Wunderground v.1.15,2013-06-27 09:49:00,
2013-06-27 04:59:00,72.0,69.5,29.81,West,271,0.0,0.0,92,0.00,,,0.00,Wunderground v.1.15,2013-06-27 09:59:00,
2013-06-27 05:04:00,71.8,69.3,29.81,West,271,0.0,0.0,92,0.00,,,0.00,Wunderground v.1.15,2013-06-27 10:04:00,
2013-06-27 05:09:00,71.6,69.2,29.81,West,271,0.0,0.0,92,0.00,,,0.00,Wunderground v.1.15,2013-06-27 10:09:00,
2013-06-27 05:19:00,71.3,68.9,29.81,West,271,0.0,0.0,92,0.00,,,0.00,Wunderground v.1.15,2013-06-27 10:19:00,
2013-06-27 05:29:00,71.5,69.1,29.81,West,271,0.0,0.0,92,0.00,,,0.00,Wunderground v.1.15,2013-06-27 10:29:00,
2013-06-27 05:39:00,71.3,69.2,29.82,West,271,0.0,0.0,93,0.00,,,0.00,Wunderground v.1.15,2013-06-27 10:39:00,
2013-06-27 05:49:00,71.1,69.0,29.82,West,271,0.0,0.0,93,0.00,,,0.00,Wunderground v.1.15,2013-06-27 10:49:00,
2013-06-27 05:59:00,71.1,69.0,29.82,West,271,0.0,0.0,93,0.00,,,0.00,Wunderground v.1.15,2013-06-27 10:59:00,
2013-06-27 06:04:00,70.9,68.8,29.82,West,271,0.0,0.0,93,0.00,,,0.00,Wunderground v.1.15,2013-06-27 11:04:00,
2013-06-27 06:09:00,70.8,68.7,29.82,West,271,0.0,0.0,93,0.00,,,0.00,Wunderground v.1.15,2013-06-27 11:09:00,
2013-06-27 06:19:00,70.8,68.7,29.82,West,271,0.0,0.0,93,0.00,,,0.00,Wunderground v.1.15,2013-06-27 11:19:00,
2013-06-27 06:29:00,70.9,68.8,29.82,West,271,0.0,0.0,93,0.00,,,0.00,Wunderground v.1.15,2013-06-27 11:29:00,
2013-06-27 06:39:00,71.1,69.0,29.82,West,271,0.0,0.0,93,0.00,,,0.00,Wunderground v.1.15,2013-06-27 11:39:00,
2013-06-27 06:49:00,71.3,69.2,29.83,West,271,0.0,0.0,93,0.00,,,0.00,Wunderground v.1.15,2013-06-27 11:49:00,
2013-06-27 06:59:00,72.3,70.2,29.83,West,271,0.0,0.0,93,0.00,,,0.00,Wunderground v.1.15,2013-06-27 11:59:00,
2013-06-27 07:09:00,73.3,71.2,29.82,West,271,0.0,0.0,93,0.00,,,0.00,Wunderground v.1.15,2013-06-27 12:09:00,
2013-06-27 07:19:00,74.0,71.8,29.82,West,271,0.0,0.0,93,0.00,,,0.00,Wunderground v.1.15,2013-06-27 12:19:00,
2013-06-27 07:29:00,74.7,72.5,29.82,West,271,0.0,0.0,93,0.00,,,0.00,Wunderground v.1.15,2013-06-27 12:29:00,
2013-06-27 07:39:00,75.6,73.1,29.82,West,271,0.0,0.0,92,0.00,,,0.00,Wunderground v.1.15,2013-06-27 12:39:00,
2013-06-27 07:49:00,76.5,73.7,29.82,West,271,0.0,0.0,91,0.00,,,0.00,Wunderground v.1.15,2013-06-27 12:49:00,
2013-06-27 07:59:00,77.6,73.8,29.82,West,271,0.0,0.0,88,0.00,,,0.00,Wunderground v.1.15,2013-06-27 12:59:00,
2013-06-27 08:04:00,78.1,73.6,29.82,West,271,0.0,0.0,86,0.00,,,0.00,Wunderground v.1.15,2013-06-27 13:04:00,
2013-06-27 08:14:00,79.0,73.7,29.82,West,271,0.0,0.0,84,0.00,,,0.00,Wunderground v.1.15,2013-06-27 13:14:00,
2013-06-27 08:19:00,79.6,73.6,29.83,West,271,0.0,0.0,82,0.00,,,0.00,Wunderground v.1.15,2013-06-27 13:19:00,
2013-06-27 08:29:00,81.1,74.3,29.83,West,271,0.0,0.0,80,0.00,,,0.00,Wunderground v.1.15,2013-06-27 13:29:00,
2013-06-27 08:39:00,82.4,73.7,29.83,West,271,0.0,3.0,75,0.00,,,0.00,Wunderground v.1.15,2013-06-27 13:39:00,
2013-06-27 08:44:00,83.2,73.6,29.83,West,271,1.0,3.0,73,0.00,,,0.00,Wunderground v.1.15,2013-06-27 13:44:00,
2013-06-27 08:54:00,84.1,73.7,29.83,WSW,258,1.0,2.0,71,0.00,,,0.00,Wunderground v.1.15,2013-06-27 13:54:00,
2013-06-27 08:59:00,84.9,74.9,29.83,WSW,255,1.0,1.0,72,0.00,,,0.00,Wunderground v.1.15,2013-06-27 13:59:00,
2013-06-27 09:05:00,85.9,74.5,29.83,WSW,247,0.0,5.0,69,0.00,,,0.00,Wunderground v.1.15,2013-06-27 14:05:00,
2013-06-27 09:14:00,86.7,74.0,29.83,WSW,253,1.0,3.0,66,0.00,,,0.00,Wunderground v.1.15,2013-06-27 14:14:00,
2013-06-27 09:19:00,87.0,73.8,29.83,West,278,1.0,5.0,65,0.00,,,0.00,Wunderground v.1.15,2013-06-27 14:19:00,
2013-06-27 09:29:00,88.0,74.3,29.83,SE,125,1.0,1.0,64,0.00,,,0.00,Wunderground v.1.15,2013-06-27 14:29:00,
2013-06-27 09:39:00,88.4,74.7,29.83,WSW,246,0.0,1.0,64,0.00,,,0.00,Wunderground v.1.15,2013-06-27 14:39:00,
2013-06-27 09:49:00,88.8,74.6,29.83,NW,313,1.0,1.0,63,0.00,,,0.00,Wunderground v.1.15,2013-06-27 14:49:00,
2013-06-27 09:59:00,89.5,75.2,29.83,WSW,255,1.0,1.0,63,0.00,,,0.00,Wunderground v.1.15,2013-06-27 14:59:00,
2013-06-27 10:04:00,89.5,75.2,29.83,WSW,253,1.0,3.0,63,0.00,,,0.00,Wunderground v.1.15,2013-06-27 15:04:00,
2013-06-27 10:09:00,89.5,75.7,29.83,WSW,246,2.0,2.0,64,0.00,,,0.00,Wunderground v.1.15,2013-06-27 15:09:00,
2013-06-27 10:19:00,90.3,76.5,29.83,WNW,283,0.0,0.0,64,0.00,,,0.00,Wunderground v.1.15,2013-06-27 15:19:00,
2013-06-27 10:29:00,90.3,75.0,29.83,WNW,298,2.0,2.0,61,0.00,,,0.00,Wunderground v.1.15,2013-06-27 15:29:00,
2013-06-27 10:39:00,90.5,75.7,29.83,NNW,329,1.0,1.0,62,0.00,,,0.00,Wunderground v.1.15,2013-06-27 15:39:00,
2013-06-27 10:49:00,90.7,76.4,29.83,West,261,2.0,4.0,63,0.00,,,0.00,Wunderground v.1.15,2013-06-27 15:49:00,
2013-06-27 10:59:00,91.2,76.4,29.83,West,263,2.0,2.0,62,0.00,,,0.00,Wunderground v.1.15,2013-06-27 15:59:00,
2013-06-27 11:05:00,91.4,76.1,29.83,WSW,240,1.0,2.0,61,0.00,,,0.00,Wunderground v.1.15,2013-06-27 16:05:00,
2013-06-27 11:14:00,91.8,76.4,29.83,NE,51,1.0,3.0,61,0.00,,,0.00,Wunderground v.1.15,2013-06-27 16:14:00,
2013-06-27 11:24:00,91.6,75.2,29.83,NNW,328,2.0,4.0,59,0.00,,,0.00,Wunderground v.1.15,2013-06-27 16:24:00,
2013-06-27 11:34:00,91.8,77.4,29.82,NNW,347,1.0,2.0,63,0.00,,,0.00,Wunderground v.1.15,2013-06-27 16:34:00,
2013-06-27 11:44:00,92.9,76.5,29.82,WSW,240,1.0,4.0,59,0.00,,,0.00,Wunderground v.1.15,2013-06-27 16:44:00,
2013-06-27 11:49:00,92.7,76.3,29.82,North,349,1.0,1.0,59,0.00,,,0.00,Wunderground v.1.15,2013-06-27 16:49:00,
2013-06-27 11:59:00,92.5,76.1,29.82,NW,313,1.0,3.0,59,0.00,,,0.00,Wunderground v.1.15,2013-06-27 16:59:00,
2013-06-27 12:04:00,92.5,76.6,29.82,WSW,251,1.0,4.0,60,0.00,,,0.00,Wunderground v.1.15,2013-06-27 17:04:00,
2013-06-27 12:09:00,92.5,74.5,29.82,West,259,1.0,1.0,56,0.00,,,0.00,Wunderground v.1.15,2013-06-27 17:09:00,
2013-06-27 12:19:00,92.9,76.5,29.82,NNW,329,1.0,1.0,59,0.00,,,0.00,Wunderground v.1.15,2013-06-27 17:19:00,
2013-06-27 12:29:00,93.4,75.4,29.82,NW,311,1.0,1.0,56,0.00,,,0.00,Wunderground v.1.15,2013-06-27 17:29:00,
2013-06-27 12:34:00,93.2,75.2,29.82,West,261,1.0,1.0,56,0.00,,,0.00,Wunderground v.1.15,2013-06-27 17:34:00,
2013-06-27 12:44:00,93.4,76.4,29.82,West,259,1.0,5.0,58,0.00,,,0.00,Wunderground v.1.15,2013-06-27 17:44:00,
2013-06-27 12:54:00,93.4,74.8,29.82,WSW,241,3.0,5.0,55,0.00,,,0.00,Wunderground v.1.15,2013-06-27 17:54:00,
2013-06-27 13:04:00,93.8,75.2,29.82,WNW,293,1.0,2.0,55,0.00,,,0.00,Wunderground v.1.15,2013-06-27 18:04:00,
2013-06-27 13:09:00,94.0,77.0,29.82,NW,319,1.0,1.0,58,0.00,,,0.00,Wunderground v.1.15,2013-06-27 18:09:00,
2013-06-27 13:19:00,94.7,77.6,29.82,SSE,161,1.0,1.0,58,0.00,,,0.00,Wunderground v.1.15,2013-06-27 18:19:00,
2013-06-27 13:29:00,94.7,76.0,29.82,West,259,1.0,1.0,55,0.00,,,0.00,Wunderground v.1.15,2013-06-27 18:29:00,
2013-06-27 13:39:00,94.5,74.7,29.82,North,360,1.0,3.0,53,0.00,,,0.00,Wunderground v.1.15,2013-06-27 18:39:00,
2013-06-27 13:44:00,94.5,76.9,29.82,NNW,332,1.0,3.0,57,0.00,,,0.00,Wunderground v.1.15,2013-06-27 18:44:00,
2013-06-27 13:54:00,94.9,76.2,29.82,SSE,148,1.0,1.0,55,0.00,,,0.00,Wunderground v.1.15,2013-06-27 18:54:00,
2013-06-27 13:59:00,95.1,74.7,29.82,SW,216,1.0,1.0,52,0.00,,,0.00,Wunderground v.1.15,2013-06-27 18:59:00,
2013-06-27 14:04:00,95.6,75.7,29.81,NE,53,1.0,6.0,53,0.00,,,0.00,Wunderground v.1.15,2013-06-27 19:04:00,
2013-06-27 14:09:00,95.9,76.6,29.81,WNW,297,1.0,1.0,54,0.00,,,0.00,Wunderground v.1.15,2013-06-27 19:09:00,
2013-06-27 14:19:00,96.1,73.2,29.80,NNW,338,1.0,1.0,48,0.00,,,0.00,Wunderground v.1.15,2013-06-27 19:19:00,
2013-06-27 14:29:00,96.3,73.4,29.80,West,267,1.0,3.0,48,0.00,,,0.00,Wunderground v.1.15,2013-06-27 19:29:00,
2013-06-27 14:34:00,96.3,74.6,29.80,NNE,20,1.0,3.0,50,0.00,,,0.00,Wunderground v.1.15,2013-06-27 19:34:00,
2013-06-27 14:44:00,96.6,74.3,29.80,NW,306,1.0,1.0,49,0.00,,,0.00,Wunderground v.1.15,2013-06-27 19:44:00,
2013-06-27 14:49:00,96.1,74.5,29.80,WSW,239,1.0,1.0,50,0.00,,,0.00,Wunderground v.1.15,2013-06-27 19:49:00,
2013-06-27 14:59:00,95.4,74.4,29.80,NW,325,0.0,0.0,51,0.00,,,0.00,Wunderground v.1.15,2013-06-27 19:59:00,
2013-06-27 15:04:00,95.6,74.0,29.80,WNW,300,1.0,1.0,50,0.00,,,0.00,Wunderground v.1.15,2013-06-27 20:04:00,
2013-06-27 15:09:00,95.6,74.0,29.80,NNW,338,1.0,2.0,50,0.00,,,0.00,Wunderground v.1.15,2013-06-27 20:09:00,
2013-06-27 15:19:00,94.9,75.1,29.80,NNE,28,1.0,5.0,53,0.00,,,0.00,Wunderground v.1.15,2013-06-27 20:19:00,
2013-06-27 15:29:00,94.9,76.7,29.80,West,269,1.0,1.0,56,0.00,,,0.00,Wunderground v.1.15,2013-06-27 20:29:00,
2013-06-27 15:39:00,95.9,76.0,29.80,WNW,297,1.0,1.0,53,0.00,,,0.00,Wunderground v.1.15,2013-06-27 20:39:00,
2013-06-27 15:49:00,95.9,74.3,29.79,North,349,1.0,2.0,50,0.00,,,0.00,Wunderground v.1.15,2013-06-27 20:49:00,
2013-06-27 16:05:00,95.9,73.7,29.80,WNW,296,1.0,1.0,49,0.00,,,0.00,Wunderground v.1.15,2013-06-27 21:05:00,
2013-06-27 16:14:00,94.9,74.5,29.80,NW,316,1.0,2.0,52,0.00,,,0.00,Wunderground v.1.15,2013-06-27 21:14:00,
2013-06-27 16:24:00,94.0,74.8,29.80,NNE,26,1.0,4.0,54,0.00,,,0.00,Wunderground v.1.15,2013-06-27 21:24:00,
2013-06-27 16:34:00,94.0,74.3,29.79,North,9,1.0,4.0,53,0.00,,,0.00,Wunderground v.1.15,2013-06-27 21:34:00,
2013-06-27 16:44:00,95.1,73.5,29.79,NNE,32,1.0,1.0,50,0.00,,,0.00,Wunderground v.1.15,2013-06-27 21:44:00,
2013-06-27 16:54:00,95.1,73.5,29.78,NNE,29,0.0,1.0,50,0.00,,,0.00,Wunderground v.1.15,2013-06-27 21:54:00,
2013-06-27 17:04:00,94.9,75.1,29.77,NE,53,0.0,0.0,53,0.00,,,0.00,Wunderground v.1.15,2013-06-27 22:04:00,
2013-06-27 17:09:00,94.9,73.4,29.77,NE,53,0.0,0.0,50,0.00,,,0.00,Wunderground v.1.15,2013-06-27 22:09:00,
2013-06-27 17:19:00,94.7,75.5,29.77,NE,48,1.0,1.0,54,0.00,,,0.00,Wunderground v.1.15,2013-06-27 22:19:00,
2013-06-27 17:34:00,94.0,73.1,29.77,NNE,20,0.0,0.0,51,0.00,,,0.00,Wunderground v.1.15,2013-06-27 22:34:00,
2013-06-27 17:44:00,93.6,72.2,29.77,NNE,20,0.0,0.0,50,0.00,,,0.00,Wunderground v.1.15,2013-06-27 22:44:00,
2013-06-27 17:54:00,94.0,74.8,29.77,NNE,20,0.0,1.0,54,0.00,,,0.00,Wunderground v.1.15,2013-06-27 22:54:00,
2013-06-27 18:04:00,93.6,76.1,29.76,NNE,20,0.0,1.0,57,0.00,,,0.00,Wunderground v.1.15,2013-06-27 23:04:00,
2013-06-27 18:14:00,93.8,76.8,29.76,East,96,1.0,3.0,58,0.00,,,0.00,Wunderground v.1.15,2013-06-27 23:14:00,
2013-06-27 18:29:00,93.2,78.2,29.75,SSE,159,1.0,1.0,62,0.00,,,0.00,Wunderground v.1.15,2013-06-27 23:29:00,
2013-06-27 18:39:00,91.8,77.9,29.72,ESE,117,0.0,1.0,64,0.00,,,0.00,Wunderground v.1.15,2013-06-27 23:39:00,
2013-06-27 18:44:00,91.4,77.0,29.72,ESE,117,1.0,1.0,63,0.00,,,0.00,Wunderground v.1.15,2013-06-27 23:44:00,
2013-06-27 18:54:00,90.7,76.8,29.73,ESE,117,0.0,0.0,64,0.00,,,0.00,Wunderground v.1.15,2013-06-27 23:54:00,
2013-06-27 19:05:00,90.5,77.6,29.72,ESE,117,0.0,0.0,66,0.00,,,0.00,Wunderground v.1.15,2013-06-28 00:05:00,
2013-06-27 19:14:00,90.1,76.3,29.72,ESE,117,0.0,0.0,64,0.00,,,0.00,Wunderground v.1.15,2013-06-28 00:14:00,
2013-06-27 19:24:00,89.7,77.3,29.72,ESE,117,0.0,0.0,67,0.00,,,0.00,Wunderground v.1.15,2013-06-28 00:24:00,
2013-06-27 19:29:00,89.3,77.3,29.72,ESE,117,0.0,0.0,68,0.00,,,0.00,Wunderground v.1.15,2013-06-28 00:29:00,
2013-06-27 19:39:00,88.8,77.3,29.72,ESE,117,0.0,0.0,69,0.00,,,0.00,Wunderground v.1.15,2013-06-28 00:39:00,
2013-06-27 19:54:00,88.4,77.8,29.72,SE,144,0.0,0.0,71,0.00,,,0.00,Wunderground v.1.15,2013-06-28 00:54:00,
2013-06-27 19:59:00,88.0,77.4,29.72,SE,144,0.0,0.0,71,0.00,,,0.00,Wunderground v.1.15,2013-06-28 00:59:00,
2013-06-27 20:04:00,87.8,76.8,29.71,SE,134,0.0,0.0,70,0.00,,,0.00,Wunderground v.1.15,2013-06-28 01:04:00,
2013-06-27 20:09:00,87.6,76.6,29.71,SE,134,0.0,0.0,70,0.00,,,0.00,Wunderground v.1.15,2013-06-28 01:09:00,
2013-06-27 20:19:00,87.2,76.6,29.71,SE,134,0.0,0.0,71,0.00,,,0.00,Wunderground v.1.15,2013-06-28 01:19:00,
2013-06-27 20:29:00,86.5,76.4,29.71,SE,134,0.0,0.0,72,0.00,,,0.00,Wunderground v.1.15,2013-06-28 01:29:00,
2013-06-27 20:34:00,86.3,76.2,29.72,SE,134,0.0,0.0,72,0.00,,,0.00,Wunderground v.1.15,2013-06-28 01:34:00,
2013-06-27 20:49:00,85.7,76.5,29.72,SE,134,0.0,0.0,74,0.00,,,0.00,Wunderground v.1.15,2013-06-28 01:49:00,
2013-06-27 20:54:00,85.5,76.7,29.72,SE,134,0.0,0.0,75,0.00,,,0.00,Wunderground v.1.15,2013-06-28 01:54:00,
2013-06-27 21:09:00,84.9,76.9,29.74,SE,134,0.0,0.0,77,0.00,,,0.00,Wunderground v.1.15,2013-06-28 02:09:00,
2013-06-27 21:19:00,84.1,76.9,29.73,SE,134,0.0,0.0,79,0.00,,,0.00,Wunderground v.1.15,2013-06-28 02:19:00,
2013-06-27 21:29:00,83.4,76.6,29.73,SE,134,0.0,0.0,80,0.00,,,0.00,Wunderground v.1.15,2013-06-28 02:29:00,
2013-06-27 21:39:00,82.8,76.4,29.73,SE,134,0.0,0.0,81,0.00,,,0.00,Wunderground v.1.15,2013-06-28 02:39:00,
2013-06-27 21:49:00,82.4,76.3,29.73,SE,134,0.0,0.0,82,0.00,,,0.00,Wunderground v.1.15,2013-06-28 02:49:00,
2013-06-27 22:05:00,82.2,76.5,29.74,SE,134,0.0,0.0,83,0.00,,,0.00,Wunderground v.1.15,2013-06-28 03:05:00,
2013-06-27 22:14:00,82.4,76.7,29.74,SE,134,0.0,0.0,83,0.00,,,0.00,Wunderground v.1.15,2013-06-28 03:14:00,
2013-06-27 22:29:00,82.8,76.4,29.74,SE,134,0.0,0.0,81,0.00,,,0.00,Wunderground v.1.15,2013-06-28 03:29:00,
2013-06-27 22:39:00,83.2,76.0,29.74,WSW,242,0.0,0.0,79,0.00,,,0.00,Wunderground v.1.15,2013-06-28 03:39:00,
2013-06-27 22:44:00,83.4,75.8,29.74,WSW,252,0.0,0.0,78,0.00,,,0.00,Wunderground v.1.15,2013-06-28 03:44:00,
2013-06-27 22:54:00,83.4,75.8,29.75,WSW,252,0.0,0.0,78,0.00,,,0.00,Wunderground v.1.15,2013-06-28 03:54:00,
2013-06-27 23:05:00,83.4,76.2,29.75,WSW,252,0.0,0.0,79,0.00,,,0.00,Wunderground v.1.15,2013-06-28 04:05:00,
2013-06-27 23:09:00,83.2,76.0,29.75,WSW,252,0.0,0.0,79,0.00,,,0.00,Wunderground v.1.15,2013-06-28 04:09:00,
2013-06-27 23:14:00,83.0,75.8,29.75,WSW,252,0.0,0.0,79,0.00,,,0.00,Wunderground v.1.15,2013-06-28 04:14:00,
2013-06-27 23:19:00,82.8,76.0,29.76,WSW,252,0.0,0.0,80,0.00,,,0.00,Wunderground v.1.15,2013-06-28 04:19:00,
2013-06-27 23:24:00,82.6,76.2,29.76,WSW,252,0.0,0.0,81,0.00,,,0.00,Wunderground v.1.15,2013-06-28 04:24:00,
2013-06-27 23:34:00,82.2,76.2,29.74,WSW,252,0.0,0.0,82,0.00,,,0.00,Wunderground v.1.15,2013-06-28 04:34:00,
2013-06-27 23:44:00,81.8,75.8,29.74,WSW,252,0.0,0.0,82,0.00,,,0.00,Wunderground v.1.15,2013-06-28 04:44:00,
2013-06-27 23:49:00,81.8,75.8,29.72,WSW,252,0.0,0.0,82,0.00,,,0.00,Wunderground v.1.15,2013-06-28 04:49:00,
2013-06-27 23:54:00,81.6,75.6,29.72,WSW,252,0.0,0.0,82,0.00,,,0.00,Wunderground v.1.15,2013-06-28 04:54:00,
2013-06-27 23:59:00,81.6,75.2,29.72,WSW,252,0.0,0.0,81,0.00,,,0.00,Wunderground v.1.15,2013-06-28 04:59:00,